createdAt,value
2019-01-25T00:00:32.622Z,-2.1
2019-01-25T00:01:32.851Z,-2.13
2019-01-25T00:02:32.984Z,-2.18
2019-01-25T00:03:33.465Z,-2.28
2019-01-25T00:04:34.147Z,-2.26
2019-01-25T00:05:34.839Z,-2.28
2019-01-25T00:06:36.074Z,-2.37
2019-01-25T00:07:35.755Z,-2.34
2019-01-25T00:08:36.849Z,-2.42
2019-01-25T00:09:37.252Z,-2.36
2019-01-25T00:10:37.656Z,-2.44
2019-01-25T00:11:38.059Z,-2.36
2019-01-25T00:12:39.015Z,-2.37
2019-01-25T00:13:39.145Z,-2.37
2019-01-25T00:14:40.826Z,-2.4
2019-01-25T00:15:40.950Z,-2.51
2019-01-25T00:16:42.356Z,-2.54
2019-01-25T00:17:42.761Z,-2.5
2019-01-25T00:18:43.855Z,-2.54
2019-01-25T00:19:44.537Z,-2.58
2019-01-25T00:20:45.500Z,-2.54
2019-01-25T00:21:46.186Z,-2.55
2019-01-25T00:22:47.425Z,-2.57
2019-01-25T00:23:48.469Z,-2.63
2019-01-25T00:24:48.797Z,-2.62
2019-01-25T00:25:49.923Z,-2.63
2019-01-25T00:26:50.881Z,-2.66
2019-01-25T00:27:51.562Z,-2.63
2019-01-25T00:28:52.834Z,-2.57
2019-01-25T00:29:53.392Z,-2.63
2019-01-25T00:30:54.084Z,-2.57
2019-01-25T00:31:55.763Z,-2.55
2019-01-25T00:32:56.170Z,-2.7
2019-01-25T00:33:56.586Z,-2.69
2019-01-25T00:34:57.543Z,-2.69
2019-01-25T00:35:57.668Z,-2.65
2019-01-25T00:36:58.386Z,-2.7
2019-01-25T00:37:58.793Z,-2.73
2019-01-25T00:38:59.912Z,-2.8
2019-01-25T00:40:07.560Z,-2.8
2019-01-25T00:40:12.045Z,-2.8
2019-01-25T00:41:12.852Z,-2.81
2019-01-25T00:42:12.976Z,-2.73
2019-01-25T00:43:14.105Z,-2.8
2019-01-25T00:44:15.233Z,-2.83
2019-01-25T00:45:15.636Z,-2.81
2019-01-25T00:46:16.336Z,-2.84
2019-01-25T00:47:16.613Z,-2.94
2019-01-25T00:48:18.032Z,-2.94
2019-01-25T00:49:18.466Z,-2.96
2019-01-25T00:50:19.594Z,-2.96
2019-01-25T00:51:20.682Z,-3.08
2019-01-25T00:52:21.657Z,-2.98
2019-01-25T00:53:22.339Z,-3.07
2019-01-25T00:54:22.460Z,-3.04
2019-01-25T00:55:23.139Z,-3.02
2019-01-25T00:56:23.867Z,-3.11
2019-01-25T00:57:24.547Z,-3.09
2019-01-25T00:58:25.264Z,-3.14
2019-01-25T00:59:25.667Z,-3.11
2019-01-25T01:00:26.074Z,-3.11
2019-01-25T01:01:28.558Z,-3.14
2019-01-25T01:02:28.985Z,-3.14
2019-01-25T01:03:29.399Z,-3.14
2019-01-25T01:04:30.362Z,-3.11
2019-01-25T01:05:31.046Z,-3.11
2019-01-25T01:06:31.169Z,-3.14
2019-01-25T01:07:32.130Z,-3.19
2019-01-25T01:08:32.543Z,-3.12
2019-01-25T01:09:33.226Z,-3.22
2019-01-25T01:10:33.627Z,-3.2
2019-01-25T01:11:34.023Z,-3.23
2019-01-25T01:12:34.981Z,-3.27
2019-01-25T01:13:35.110Z,-3.22
2019-01-25T01:14:36.341Z,-3.25
2019-01-25T01:15:37.074Z,-3.23
2019-01-25T01:16:37.231Z,-3.26
2019-01-25T01:17:37.910Z,-3.27
2019-01-25T01:18:38.045Z,-3.22
2019-01-25T01:19:38.722Z,-3.25
2019-01-25T01:20:39.849Z,-3.26
2019-01-25T01:21:40.938Z,-3.26
2019-01-25T01:22:42.618Z,-3.29
2019-01-25T01:23:43.579Z,-3.27
2019-01-25T01:24:43.984Z,-3.19
2019-01-25T01:25:44.951Z,-3.29
2019-01-25T01:26:45.082Z,-3.17
2019-01-25T01:27:46.492Z,-3.26
2019-01-25T01:28:47.454Z,-3.27
2019-01-25T01:29:48.219Z,-3.29
2019-01-25T01:30:49.187Z,-3.3
2019-01-25T01:31:50.290Z,-3.38
2019-01-25T01:32:50.732Z,-3.27
2019-01-25T01:33:51.967Z,-3.36
2019-01-25T01:34:52.373Z,-3.32
2019-01-25T01:35:52.544Z,-3.36
2019-01-25T01:36:53.231Z,-3.36
2019-01-25T01:37:54.190Z,-3.27
2019-01-25T01:38:55.315Z,-3.33
2019-01-25T01:39:56.443Z,-3.37
2019-01-25T01:40:57.851Z,-3.33
2019-01-25T01:41:57.950Z,-3.3
2019-01-25T01:42:59.079Z,-3.37
2019-01-25T01:44:00.067Z,-3.23
2019-01-25T01:45:00.744Z,-3.43
2019-01-25T01:46:01.714Z,-3.41
2019-01-25T01:47:02.721Z,-3.38
2019-01-25T01:48:02.718Z,-3.44
2019-01-25T01:49:02.844Z,-3.38
2019-01-25T01:50:04.533Z,-3.44
2019-01-25T01:51:04.935Z,-3.44
2019-01-25T01:52:05.028Z,-3.41
2019-01-25T01:53:05.988Z,-3.46
2019-01-25T01:54:07.223Z,-3.44
2019-01-25T01:55:07.464Z,-3.26
2019-01-25T01:56:07.148Z,-3.32
2019-01-25T01:57:07.831Z,-3.4
2019-01-25T01:58:07.958Z,-3.36
2019-01-25T01:59:08.651Z,-3.41
2019-01-25T02:00:09.337Z,-3.43
2019-01-25T02:01:10.483Z,-3.44
2019-01-25T02:02:10.848Z,-3.33
2019-01-25T02:03:11.529Z,-3.23
2019-01-25T02:04:11.933Z,-3.38
2019-01-25T02:05:13.172Z,-3.32
2019-01-25T02:06:13.576Z,-3.29
2019-01-25T02:07:14.269Z,-3.26
2019-01-25T02:08:15.397Z,-3.3
2019-01-25T02:09:15.809Z,-3.26
2019-01-25T02:10:16.769Z,-3.27
2019-01-25T02:11:17.751Z,-3.32
2019-01-25T02:12:17.846Z,-3.29
2019-01-25T02:13:19.360Z,-3.26
2019-01-25T02:14:19.323Z,-3.15
2019-01-25T02:15:20.003Z,-3.22
2019-01-25T02:16:20.408Z,-3.22
2019-01-25T02:17:22.092Z,-3.19
2019-01-25T02:18:22.500Z,-3.25
2019-01-25T02:19:23.740Z,-3.19
2019-01-25T02:20:23.871Z,-3.26
2019-01-25T02:21:24.591Z,-3.29
2019-01-25T02:22:25.123Z,-3.26
2019-01-25T02:23:26.248Z,-3.29
2019-01-25T02:24:26.937Z,-3.22
2019-01-25T02:25:27.628Z,-3.15
2019-01-25T02:26:28.034Z,-3.12
2019-01-25T02:27:28.723Z,-3.25
2019-01-25T02:28:29.125Z,-3.25
2019-01-25T02:29:29.530Z,-3.19
2019-01-25T02:30:30.786Z,-3.22
2019-01-25T02:31:31.471Z,-3.2
2019-01-25T02:32:31.867Z,-3.22
2019-01-25T02:33:32.557Z,-3.19
2019-01-25T02:34:32.518Z,-3.2
2019-01-25T02:35:33.035Z,-3.22
2019-01-25T02:36:34.041Z,-3.19
2019-01-25T02:37:34.764Z,-3.23
2019-01-25T02:38:35.165Z,-3.2
2019-01-25T02:39:36.127Z,-3.22
2019-01-25T02:40:40.574Z,-3.15
2019-01-25T02:41:41.272Z,-3.2
2019-01-25T02:42:42.642Z,-3.19
2019-01-25T02:43:43.345Z,-3.12
2019-01-25T02:44:44.306Z,-3.11
2019-01-25T02:45:44.989Z,-3.12
2019-01-25T02:46:45.135Z,-3.15
2019-01-25T02:47:45.649Z,-3.02
2019-01-25T02:48:46.892Z,-2.99
2019-01-25T02:49:47.576Z,-2.93
2019-01-25T02:50:48.536Z,-2.91
2019-01-25T02:51:49.619Z,-2.93
2019-01-25T02:52:49.706Z,-2.96
2019-01-25T02:53:50.243Z,-2.73
2019-01-25T02:54:50.937Z,-2.75
2019-01-25T02:55:51.902Z,-2.68
2019-01-25T02:56:52.141Z,-2.68
2019-01-25T02:57:52.547Z,-2.81
2019-01-25T02:58:53.803Z,-2.76
2019-01-25T02:59:54.044Z,-2.78
2019-01-25T03:00:54.722Z,-2.8
2019-01-25T03:01:55.404Z,-2.84
2019-01-25T03:02:56.419Z,-2.81
2019-01-25T03:03:56.840Z,-2.86
2019-01-25T03:04:57.289Z,-2.98
2019-01-25T03:05:59.084Z,-2.96
2019-01-25T03:06:59.324Z,-2.99
2019-01-25T03:08:00.565Z,-2.98
2019-01-25T03:09:01.528Z,-3.09
2019-01-25T03:10:02.784Z,-3.04
2019-01-25T03:11:02.746Z,-3.09
2019-01-25T03:12:03.262Z,-3.07
2019-01-25T03:13:04.075Z,-3.11
2019-01-25T03:14:04.320Z,-2.94
2019-01-25T03:15:05.565Z,-2.91
2019-01-25T03:16:05.694Z,-2.94
2019-01-25T03:17:06.658Z,-2.94
2019-01-25T03:18:07.342Z,-2.89
2019-01-25T03:19:08.073Z,-2.89
2019-01-25T03:20:09.038Z,-2.98
2019-01-25T03:21:08.770Z,-2.96
2019-01-25T03:22:09.904Z,-3.09
2019-01-25T03:23:11.576Z,-3.05
2019-01-25T03:24:11.273Z,-3.09
2019-01-25T03:25:11.963Z,-3.11
2019-01-25T03:26:13.198Z,-3.12
2019-01-25T03:27:13.880Z,-3.08
2019-01-25T03:28:14.292Z,-3.08
2019-01-25T03:29:15.426Z,-3.15
2019-01-25T03:30:15.877Z,-3.22
2019-01-25T03:31:18.019Z,-3.19
2019-01-25T03:32:18.601Z,-3.22
2019-01-25T03:33:19.514Z,-3.3
2019-01-25T03:34:20.660Z,-3.26
2019-01-25T03:35:21.620Z,-3.19
2019-01-25T03:36:21.314Z,-3.2
2019-01-25T03:37:22.280Z,-3.14
2019-01-25T03:38:23.529Z,-3.2
2019-01-25T03:39:24.490Z,-3.23
2019-01-25T03:40:25.173Z,-3.22
2019-01-25T03:41:25.870Z,-3.22
2019-01-25T03:42:26.279Z,-3.29
2019-01-25T03:43:27.231Z,-3.26
2019-01-25T03:44:27.636Z,-3.27
2019-01-25T03:45:28.884Z,-3.3
2019-01-25T03:46:29.286Z,-3.25
2019-01-25T03:47:30.968Z,-3.36
2019-01-25T03:48:31.656Z,-3.2
2019-01-25T03:49:32.341Z,-3.36
2019-01-25T03:50:32.305Z,-3.26
2019-01-25T03:51:32.991Z,-3.33
2019-01-25T03:52:33.688Z,-3.33
2019-01-25T03:53:34.463Z,-3.33
2019-01-25T03:54:34.591Z,-3.27
2019-01-25T03:55:35.998Z,-3.3
2019-01-25T03:56:36.402Z,-3.26
2019-01-25T03:57:37.085Z,-3.32
2019-01-25T03:58:37.773Z,-3.36
2019-01-25T03:59:38.181Z,-3.26
2019-01-25T04:00:40.154Z,-3.2
2019-01-25T04:01:40.116Z,-3.19
2019-01-25T04:02:41.092Z,-3.23
2019-01-25T04:03:41.458Z,-3.23
2019-01-25T04:04:42.139Z,-3.22
2019-01-25T04:05:42.545Z,-3.19
2019-01-25T04:06:43.680Z,-3.23
2019-01-25T04:07:45.032Z,-3.12
2019-01-25T04:08:46.547Z,-3.14
2019-01-25T04:09:46.957Z,-3.14
2019-01-25T04:10:47.639Z,-3.12
2019-01-25T04:11:48.671Z,-3.23
2019-01-25T04:12:49.089Z,-3.23
2019-01-25T04:13:50.204Z,-3.11
2019-01-25T04:14:50.888Z,-3.12
2019-01-25T04:15:51.292Z,-3.14
2019-01-25T04:16:52.261Z,-3.09
2019-01-25T04:17:53.503Z,-3.12
2019-01-25T04:18:53.755Z,-3.07
2019-01-25T04:19:54.443Z,-3.08
2019-01-25T04:20:55.412Z,-3.08
2019-01-25T04:21:56.372Z,-2.99
2019-01-25T04:22:57.051Z,-3.02
2019-01-25T04:23:57.587Z,-2.94
2019-01-25T04:24:58.836Z,-2.96
2019-01-25T04:25:59.022Z,-2.99
2019-01-25T04:26:59.708Z,-3.05
2019-01-25T04:28:00.411Z,-3.04
2019-01-25T04:29:00.648Z,-3.07
2019-01-25T04:30:01.901Z,-3.12
2019-01-25T04:31:02.457Z,-3.11
2019-01-25T04:32:02.428Z,-3.08
2019-01-25T04:33:04.133Z,-3.04
2019-01-25T04:34:04.246Z,-2.98
2019-01-25T04:35:05.937Z,-2.89
2019-01-25T04:36:06.632Z,-2.96
2019-01-25T04:37:07.048Z,-2.86
2019-01-25T04:38:07.731Z,-2.87
2019-01-25T04:39:08.155Z,-2.84
2019-01-25T04:40:09.120Z,-2.84
2019-01-25T04:41:13.178Z,-2.81
2019-01-25T04:42:13.863Z,-2.83
2019-01-25T04:43:14.270Z,-2.8
2019-01-25T04:44:15.363Z,-2.78
2019-01-25T04:45:16.364Z,-2.8
2019-01-25T04:46:16.885Z,-2.75
2019-01-25T04:47:18.121Z,-2.75
2019-01-25T04:48:18.525Z,-2.8
2019-01-25T04:49:18.931Z,-2.76
2019-01-25T04:50:21.531Z,-2.89
2019-01-25T04:51:20.940Z,-2.89
2019-01-25T04:52:22.647Z,-2.86
2019-01-25T04:53:23.887Z,-2.81
2019-01-25T04:54:23.727Z,-2.83
2019-01-25T04:55:24.695Z,-2.83
2019-01-25T04:56:25.546Z,-2.93
2019-01-25T04:57:25.810Z,-2.93
2019-01-25T04:58:26.061Z,-3.04
2019-01-25T04:59:26.190Z,-3.05
2019-01-25T05:00:26.964Z,-3.19
2019-01-25T05:01:27.224Z,-3.14
2019-01-25T05:02:29.197Z,-3.2
2019-01-25T05:03:29.751Z,-3.19
2019-01-25T05:04:30.569Z,-3.19
2019-01-25T05:05:31.262Z,-3.25
2019-01-25T05:06:32.508Z,-3.19
2019-01-25T05:07:33.225Z,-3.2
2019-01-25T05:08:33.742Z,-3.22
2019-01-25T05:09:34.152Z,-3.32
2019-01-25T05:10:34.569Z,-3.29
2019-01-25T05:11:35.086Z,-3.3
2019-01-25T05:12:36.045Z,-3.33
2019-01-25T05:13:36.730Z,-3.32
2019-01-25T05:14:37.684Z,-3.29
2019-01-25T05:15:37.926Z,-3.32
2019-01-25T05:16:38.408Z,-3.22
2019-01-25T05:17:39.536Z,-3.2
2019-01-25T05:18:40.675Z,-3.2
2019-01-25T05:19:41.670Z,-3.17
2019-01-25T05:20:42.083Z,-3.12
2019-01-25T05:21:43.336Z,-3.23
2019-01-25T05:22:44.023Z,-3.22
2019-01-25T05:23:44.703Z,-3.3
2019-01-25T05:24:45.519Z,-3.37
2019-01-25T05:25:46.255Z,-3.46
2019-01-25T05:26:47.514Z,-3.46
2019-01-25T05:27:48.251Z,-3.36
2019-01-25T05:28:48.961Z,-3.41
2019-01-25T05:29:49.396Z,-3.44
2019-01-25T05:30:50.647Z,-3.32
2019-01-25T05:31:51.052Z,-3.33
2019-01-25T05:32:52.179Z,-3.29
2019-01-25T05:33:52.419Z,-3.36
2019-01-25T05:34:53.229Z,-3.32
2019-01-25T05:35:54.193Z,-3.33
2019-01-25T05:36:55.599Z,-3.26
2019-01-25T05:37:56.283Z,-3.2
2019-01-25T05:38:56.686Z,-3.22
2019-01-25T05:39:57.935Z,-3.12
2019-01-25T05:40:59.459Z,-3.12
2019-01-25T05:42:00.429Z,-3.12
2019-01-25T05:43:01.401Z,-3.08
2019-01-25T05:44:02.389Z,-3.08
2019-01-25T05:45:03.041Z,-3.09
2019-01-25T05:46:03.458Z,-3.05
2019-01-25T05:47:04.138Z,-2.91
2019-01-25T05:48:04.541Z,-2.94
2019-01-25T05:49:05.514Z,-2.91
2019-01-25T05:50:06.201Z,-2.91
2019-01-25T05:51:07.160Z,-2.83
2019-01-25T05:52:08.133Z,-2.86
2019-01-25T05:53:08.822Z,-2.8
2019-01-25T05:54:09.793Z,-2.81
2019-01-25T05:55:11.157Z,-2.78
2019-01-25T05:56:12.117Z,-2.8
2019-01-25T05:57:12.820Z,-2.75
2019-01-25T05:58:12.945Z,-2.78
2019-01-25T05:59:13.632Z,-2.72
2019-01-25T06:00:13.753Z,-2.72
2019-01-25T06:01:14.434Z,-2.75
2019-01-25T06:02:15.121Z,-2.72
2019-01-25T06:03:16.085Z,-2.78
2019-01-25T06:04:17.054Z,-2.78
2019-01-25T06:05:17.880Z,-2.9
2019-01-25T06:06:18.842Z,-2.93
2019-01-25T06:07:20.081Z,-2.94
2019-01-25T06:08:20.491Z,-2.81
2019-01-25T06:09:20.901Z,-2.83
2019-01-25T06:10:21.319Z,-2.78
2019-01-25T06:11:21.999Z,-2.78
2019-01-25T06:12:23.268Z,-2.65
2019-01-25T06:13:23.396Z,-2.75
2019-01-25T06:14:24.817Z,-2.66
2019-01-25T06:15:25.475Z,-2.69
2019-01-25T06:16:26.195Z,-2.57
2019-01-25T06:17:26.877Z,-2.63
2019-01-25T06:18:28.564Z,-2.66
2019-01-25T06:19:29.251Z,-2.76
2019-01-25T06:20:30.509Z,-2.78
2019-01-25T06:21:31.211Z,-2.89
2019-01-25T06:22:31.891Z,-2.9
2019-01-25T06:23:33.298Z,-2.9
2019-01-25T06:24:33.701Z,-2.93
2019-01-25T06:25:34.827Z,-2.81
2019-01-25T06:26:35.524Z,-2.91
2019-01-25T06:27:36.649Z,-2.94
2019-01-25T06:28:38.330Z,-2.99
2019-01-25T06:29:38.295Z,-3.09
2019-01-25T06:30:38.722Z,-3.14
2019-01-25T06:31:39.128Z,-3.15
2019-01-25T06:32:40.539Z,-3.19
2019-01-25T06:33:41.945Z,-3.19
2019-01-25T06:34:43.469Z,-3.33
2019-01-25T06:35:43.721Z,-3.36
2019-01-25T06:36:44.240Z,-3.32
2019-01-25T06:37:44.373Z,-3.32
2019-01-25T06:38:45.059Z,-3.33
2019-01-25T06:39:46.188Z,-3.36
2019-01-25T06:40:46.870Z,-3.3
2019-01-25T06:41:47.554Z,-3.3
2019-01-25T06:42:48.836Z,-3.4
2019-01-25T06:43:49.520Z,-3.46
2019-01-25T06:44:49.928Z,-3.4
2019-01-25T06:45:50.938Z,-3.44
2019-01-25T06:46:51.617Z,-3.46
2019-01-25T06:47:52.299Z,-3.25
2019-01-25T06:48:52.744Z,-3.27
2019-01-25T06:49:53.151Z,-3.27
2019-01-25T06:50:53.837Z,-3.27
2019-01-25T06:51:53.967Z,-3.26
2019-01-25T06:52:55.374Z,-3.27
2019-01-25T06:53:55.784Z,-3.29
2019-01-25T06:54:57.207Z,-3.32
2019-01-25T06:55:57.561Z,-3.27
2019-01-25T06:56:59.197Z,-3.29
2019-01-25T06:58:00.631Z,-3.27
2019-01-25T06:59:01.795Z,-3.33
2019-01-25T07:00:02.426Z,-3.27
2019-01-25T07:01:03.425Z,-3.29
2019-01-25T07:02:04.202Z,-3.29
2019-01-25T07:03:05.131Z,-3.36
2019-01-25T07:04:06.801Z,-3.25
2019-01-25T07:05:07.498Z,-3.36
2019-01-25T07:06:07.152Z,-3.33
2019-01-25T07:07:08.447Z,-3.22
2019-01-25T07:08:09.419Z,-3.2
2019-01-25T07:09:10.369Z,-3.19
2019-01-25T07:10:11.333Z,-3.14
2019-01-25T07:11:11.949Z,-3.11
2019-01-25T07:12:12.361Z,-3.08
2019-01-25T07:13:13.084Z,-3.01
2019-01-25T07:14:13.623Z,-3.15
2019-01-25T07:15:13.981Z,-3.15
2019-01-25T07:16:14.514Z,-3.2
2019-01-25T07:17:15.923Z,-3.22
2019-01-25T07:18:17.321Z,-3.26
2019-01-25T07:19:18.111Z,-3.29
2019-01-25T07:20:18.720Z,-3.2
2019-01-25T07:21:19.744Z,-3.32
2019-01-25T07:22:20.068Z,-3.41
2019-01-25T07:23:20.278Z,-3.27
2019-01-25T07:24:21.694Z,-3.38
2019-01-25T07:25:22.379Z,-3.29
2019-01-25T07:26:23.474Z,-3.3
2019-01-25T07:27:23.966Z,-3.2
2019-01-25T07:28:24.939Z,-3.32
2019-01-25T07:29:25.755Z,-3.32
2019-01-25T07:30:25.706Z,-3.22
2019-01-25T07:31:27.311Z,-3.23
2019-01-25T07:32:27.685Z,-3.15
2019-01-25T07:33:28.508Z,-3.14
2019-01-25T07:34:29.089Z,-3.14
2019-01-25T07:35:29.779Z,-3.15
2019-01-25T07:36:31.147Z,-3.2
2019-01-25T07:37:31.678Z,-3.14
2019-01-25T07:38:32.575Z,-3.17
2019-01-25T07:39:33.468Z,-3.2
2019-01-25T07:40:34.369Z,-3.15
2019-01-25T07:41:35.132Z,-3.09
2019-01-25T07:42:35.039Z,-3.09
2019-01-25T07:43:36.779Z,-3.17
2019-01-25T07:44:38.119Z,-3.12
2019-01-25T07:45:38.595Z,-3.15
2019-01-25T07:46:39.522Z,-3.09
2019-01-25T07:47:40.499Z,-3.17
2019-01-25T07:48:41.328Z,-3.07
2019-01-25T07:49:42.482Z,-3.07
2019-01-25T07:50:43.024Z,-3.05
2019-01-25T07:51:43.158Z,-3.08
2019-01-25T07:52:44.802Z,-3.05
2019-01-25T07:53:44.563Z,-3.07
2019-01-25T07:54:45.324Z,-3.14
2019-01-25T07:55:46.239Z,-3.04
2019-01-25T07:56:46.799Z,-3.07
2019-01-25T07:57:47.725Z,-3.05
2019-01-25T07:58:48.687Z,-3.11
2019-01-25T07:59:49.524Z,-3.15
2019-01-25T08:00:50.215Z,-3.12
2019-01-25T08:01:51.351Z,-3.23
2019-01-25T08:02:52.424Z,-3.15
2019-01-25T08:03:52.390Z,-3.04
2019-01-25T08:04:53.157Z,-3.01
2019-01-25T08:05:53.932Z,-3.04
2019-01-25T08:06:54.237Z,-3.05
2019-01-25T08:07:54.986Z,-2.94
2019-01-25T08:08:56.004Z,-3.02
2019-01-25T08:09:56.424Z,-3.07
2019-01-25T08:10:56.869Z,-3.17
2019-01-25T08:11:57.151Z,-3.14
2019-01-25T08:12:09.465Z,-3.12
2019-01-25T08:13:09.227Z,-3.14
2019-01-25T08:14:10.281Z,-3.11
2019-01-25T08:15:11.021Z,-3.05
2019-01-25T08:16:11.785Z,-3.08
2019-01-25T08:17:12.685Z,-3.02
2019-01-25T08:18:13.575Z,-2.84
2019-01-25T08:19:14.965Z,-2.81
2019-01-25T08:20:15.876Z,-2.76
2019-01-25T08:21:16.754Z,-2.87
2019-01-25T08:22:17.744Z,-2.83
2019-01-25T08:23:18.410Z,-2.94
2019-01-25T08:24:22.821Z,-2.84
2019-01-25T08:24:34.019Z,-2.8
2019-01-25T08:24:47.045Z,-2.84
2019-01-25T08:24:58.683Z,-2.72
2019-01-25T08:25:10.023Z,-2.73
2019-01-25T08:26:09.109Z,-2.78
2019-01-25T08:27:09.625Z,-2.75
2019-01-25T08:28:11.281Z,-2.62
2019-01-25T08:29:11.850Z,-2.58
2019-01-25T08:30:12.600Z,-2.68
2019-01-25T08:31:13.236Z,-2.65
2019-01-25T08:32:13.968Z,-2.62
2019-01-25T08:33:15.158Z,-2.47
2019-01-25T08:34:15.147Z,-2.51
2019-01-25T08:35:16.606Z,-2.44
2019-01-25T08:36:17.350Z,-2.52
2019-01-25T08:37:18.273Z,-2.5
2019-01-25T08:38:19.671Z,-2.52
2019-01-25T08:39:20.763Z,-2.44
2019-01-25T08:40:21.549Z,-2.48
2019-01-25T08:41:22.981Z,-2.5
2019-01-25T08:42:24.186Z,-2.4
2019-01-25T08:43:24.293Z,-2.48
2019-01-25T08:44:25.098Z,-2.48
2019-01-25T08:45:26.209Z,-2.47
2019-01-25T08:46:27.277Z,-2.63
2019-01-25T08:47:27.733Z,-2.66
2019-01-25T08:48:30.969Z,-2.68
2019-01-25T08:49:32.310Z,-2.68
2019-01-25T08:50:35.753Z,-2.61
2019-01-25T08:51:34.436Z,-2.45
2019-01-25T08:52:35.548Z,-2.52
2019-01-25T08:53:36.231Z,-2.48
2019-01-25T08:54:36.716Z,-2.48
2019-01-25T08:55:37.210Z,-2.5
2019-01-25T08:56:38.229Z,-2.52
2019-01-25T08:57:38.749Z,-2.51
2019-01-25T08:58:39.046Z,-2.5
2019-01-25T08:59:40.353Z,-2.48
2019-01-25T08:59:52.236Z,-2.54
2019-01-25T09:00:53.762Z,-2.54
2019-01-25T09:01:53.831Z,-2.55
2019-01-25T09:02:54.638Z,-2.32
2019-01-25T09:03:55.351Z,-2.18
2019-01-25T09:04:56.042Z,-2.32
2019-01-25T09:05:57.014Z,-2.11
2019-01-25T09:06:57.475Z,-2.13
2019-01-25T09:07:58.166Z,-2.14
2019-01-25T09:08:59.294Z,-2.11
2019-01-25T09:09:59.905Z,-2.14
2019-01-25T09:11:01.079Z,-2.18
2019-01-25T09:12:02.210Z,-2.13
2019-01-25T09:13:03.211Z,-2.13
2019-01-25T09:14:04.313Z,-2.22
2019-01-25T09:15:05.094Z,-2.15
2019-01-25T09:16:06.232Z,-2.22
2019-01-25T09:17:07.359Z,-2.23
2019-01-25T09:18:09.059Z,-2.11
2019-01-25T09:19:10.256Z,-2.1
2019-01-25T09:20:16.502Z,-2.11
2019-01-25T09:20:24.059Z,-2.2
2019-01-25T09:21:25.208Z,-2.14
2019-01-25T09:22:25.453Z,-2.08
2019-01-25T09:23:25.965Z,-1.94
2019-01-25T09:24:26.757Z,-1.9
2019-01-25T09:25:27.723Z,-1.82
2019-01-25T09:26:28.549Z,-1.79
2019-01-25T09:27:29.605Z,-1.78
2019-01-25T09:28:30.880Z,-1.74
2019-01-25T09:29:31.183Z,-1.68
2019-01-25T09:30:32.223Z,-1.61
2019-01-25T09:31:32.599Z,-1.53
2019-01-25T09:32:32.549Z,-1.43
2019-01-25T09:33:33.172Z,-1.3
2019-01-25T09:34:33.971Z,-1.27
2019-01-25T09:35:34.664Z,-1.32
2019-01-25T09:36:34.837Z,-1.29
2019-01-25T09:37:35.900Z,-1.11
2019-01-25T09:38:37.311Z,-1.04
2019-01-25T09:39:38.181Z,-0.97
2019-01-25T09:40:38.713Z,-0.93
2019-01-25T09:41:41.282Z,-0.94
2019-01-25T09:42:41.678Z,-0.8
2019-01-25T09:43:42.032Z,-0.7
2019-01-25T09:44:42.220Z,-0.75
2019-01-25T09:45:42.912Z,-0.64
2019-01-25T09:46:43.328Z,-0.66
2019-01-25T09:47:44.503Z,-0.62
2019-01-25T09:48:44.640Z,-0.51
2019-01-25T09:49:45.336Z,-0.45
2019-01-25T09:50:58.195Z,-0.39
2019-01-25T09:51:58.472Z,-0.38
2019-01-25T09:52:59.072Z,-0.26
2019-01-25T09:53:59.588Z,-0.27
2019-01-25T09:55:00.689Z,-0.27
2019-01-25T09:56:01.677Z,-0.38
2019-01-25T09:57:02.362Z,-0.36
2019-01-25T09:58:03.332Z,-0.48
2019-01-25T09:59:03.694Z,-0.6
2019-01-25T10:00:05.056Z,-0.56
2019-01-25T10:01:05.424Z,-0.74
2019-01-25T10:02:05.781Z,-0.93
2019-01-25T10:03:05.707Z,-1.03
2019-01-25T10:04:06.495Z,-1
2019-01-25T10:05:07.409Z,-0.97
2019-01-25T10:06:08.104Z,-0.94
2019-01-25T10:07:09.655Z,-0.89
2019-01-25T10:08:10.742Z,-0.7
2019-01-25T10:09:10.880Z,-0.69
2019-01-25T10:10:12.068Z,-0.74
2019-01-25T10:11:13.073Z,-0.6
2019-01-25T10:12:13.499Z,-0.64
2019-01-25T10:13:14.146Z,-0.38
2019-01-25T10:14:15.537Z,-0.07
2019-01-25T10:15:16.046Z,0.01
2019-01-25T10:16:16.685Z,0.09
2019-01-25T10:17:17.112Z,0.27
2019-01-25T10:18:17.300Z,0.47
2019-01-25T10:19:18.279Z,0.96
2019-01-25T10:20:19.242Z,1.24
2019-01-25T10:21:19.980Z,1.21
2019-01-25T10:22:20.796Z,1.12
2019-01-25T10:23:21.574Z,0.95
2019-01-25T10:24:22.408Z,1.09
2019-01-25T10:25:22.661Z,1.39
2019-01-25T10:26:23.086Z,1.3
2019-01-25T10:27:23.676Z,1.12
2019-01-25T10:28:24.111Z,1.09
2019-01-25T10:29:24.534Z,1.2
2019-01-25T10:30:25.317Z,1.2
2019-01-25T10:31:26.392Z,1.25
2019-01-25T10:32:27.975Z,1.27
2019-01-25T10:33:29.200Z,1.38
2019-01-25T10:34:30.395Z,1.39
2019-01-25T10:35:32.912Z,1.58
2019-01-25T10:36:33.613Z,1.4
2019-01-25T10:37:33.875Z,1.3
2019-01-25T10:38:34.576Z,1.45
2019-01-25T10:39:35.743Z,1.46
2019-01-25T10:40:36.458Z,1.22
2019-01-25T10:41:37.171Z,1.16
2019-01-25T10:42:54.770Z,1.14
2019-01-25T10:43:03.566Z,1.14
2019-01-25T10:44:03.006Z,1.14
2019-01-25T10:45:06.378Z,1.2
2019-01-25T10:46:07.120Z,1.25
2019-01-25T10:47:07.589Z,1.18
2019-01-25T10:48:08.833Z,0.95
2019-01-25T10:49:09.084Z,0.84
2019-01-25T10:50:10.506Z,0.67
2019-01-25T10:51:11.928Z,0.45
2019-01-25T10:52:12.383Z,0.34
2019-01-25T10:53:13.180Z,0.19
2019-01-25T10:54:14.642Z,0.15
2019-01-25T10:55:15.090Z,-0.03
2019-01-25T10:56:15.426Z,0
2019-01-25T10:57:15.846Z,-0.06
2019-01-25T10:58:17.698Z,-0.03
2019-01-25T10:59:17.694Z,-0.09
2019-01-25T11:00:18.797Z,-0.2
2019-01-25T11:01:19.867Z,-0.15
2019-01-25T11:02:20.646Z,-0.28
2019-01-25T11:03:21.472Z,-0.26
2019-01-25T11:04:22.592Z,-0.15
2019-01-25T11:05:23.311Z,0.01
2019-01-25T11:06:24.647Z,-0.09
2019-01-25T11:07:24.849Z,-0.12
2019-01-25T11:08:25.260Z,-0.18
2019-01-25T11:09:26.713Z,-0.26
2019-01-25T11:10:28.295Z,-0.3
2019-01-25T11:11:28.015Z,-0.23
2019-01-25T11:12:29.980Z,-0.3
2019-01-25T11:13:29.569Z,-0.3
2019-01-25T11:14:30.508Z,-0.44
2019-01-25T11:15:30.780Z,-0.46
2019-01-25T11:16:32.218Z,-0.39
2019-01-25T11:17:37.966Z,-0.26
2019-01-25T11:17:44.128Z,-0.31
2019-01-25T11:18:44.394Z,-0.27
2019-01-25T11:19:45.088Z,-0.26
2019-01-25T11:20:46.158Z,-0.33
2019-01-25T11:21:47.531Z,-0.33
2019-01-25T11:22:48.055Z,-0.21
2019-01-25T11:23:48.933Z,-0.26
2019-01-25T11:24:49.564Z,-0.27
2019-01-25T11:25:49.797Z,-0.23
2019-01-25T11:26:50.442Z,-0.23
2019-01-25T11:27:51.742Z,-0.23
2019-01-25T11:28:52.509Z,-0.24
2019-01-25T11:29:53.006Z,-0.2
2019-01-25T11:30:53.904Z,-0.3
2019-01-25T11:31:54.487Z,-0.2
2019-01-25T11:32:55.230Z,-0.26
2019-01-25T11:33:55.728Z,-0.26
2019-01-25T11:34:56.182Z,-0.27
2019-01-25T11:36:00.916Z,-0.28
2019-01-25T11:36:11.976Z,-0.24
2019-01-25T11:36:24.634Z,-0.24
2019-01-25T11:37:26.087Z,-0.26
2019-01-25T11:37:36.318Z,-0.21
2019-01-25T11:37:50.652Z,-0.23
2019-01-25T11:38:49.742Z,-0.21
2019-01-25T11:39:52.748Z,-0.13
2019-01-25T11:40:03.065Z,-0.06
2019-01-25T11:41:03.877Z,-0.17
2019-01-25T11:42:03.037Z,0.01
2019-01-25T11:43:18.492Z,-0.15
2019-01-25T11:44:17.152Z,-0.1
2019-01-25T11:45:19.514Z,-0.07
2019-01-25T11:46:24.916Z,0.08
2019-01-25T11:46:33.421Z,0.11
2019-01-25T11:47:33.210Z,0.06
2019-01-25T11:48:34.176Z,0.12
2019-01-25T11:49:34.591Z,0.05
2019-01-25T11:50:35.006Z,0.11
2019-01-25T11:51:36.510Z,0.16
2019-01-25T11:52:37.357Z,0.27
2019-01-25T11:53:38.045Z,0.19
2019-01-25T11:54:38.785Z,0.23
2019-01-25T11:55:39.531Z,0.24
2019-01-25T11:56:40.504Z,0.12
2019-01-25T11:57:42.024Z,0.16
2019-01-25T11:58:43.279Z,0.16
2019-01-25T11:59:43.521Z,0.26
2019-01-25T12:00:44.846Z,0.19
2019-01-25T12:01:45.262Z,0.15
2019-01-25T12:02:46.800Z,0.19
2019-01-25T12:03:49.279Z,0.26
2019-01-25T12:04:48.592Z,0.16
2019-01-25T12:05:49.558Z,0.19
2019-01-25T12:06:50.977Z,0.16
2019-01-25T12:07:51.433Z,0.19
2019-01-25T12:08:52.124Z,0.24
2019-01-25T12:09:53.262Z,0.26
2019-01-25T12:10:54.955Z,0.26
2019-01-25T12:11:55.370Z,0.27
2019-01-25T12:12:56.059Z,0.29
2019-01-25T12:13:56.037Z,0.27
2019-01-25T12:15:00.308Z,0.27
2019-01-25T12:15:11.141Z,0.31
2019-01-25T12:15:22.057Z,0.26
2019-01-25T12:16:24.102Z,0.36
2019-01-25T12:17:23.724Z,0.37
2019-01-25T12:18:25.274Z,0.44
2019-01-25T12:19:26.088Z,0.52
2019-01-25T12:20:28.841Z,0.58
2019-01-25T12:21:28.865Z,0.59
2019-01-25T12:22:30.114Z,0.58
2019-01-25T12:23:30.100Z,0.52
2019-01-25T12:24:30.823Z,0.56
2019-01-25T12:25:32.239Z,0.51
2019-01-25T12:26:33.365Z,0.44
2019-01-25T12:27:38.183Z,0.49
2019-01-25T12:27:49.928Z,0.52
2019-01-25T12:28:15.107Z,0.56
2019-01-25T12:28:27.432Z,0.61
2019-01-25T12:29:25.037Z,0.51
2019-01-25T12:30:25.291Z,0.26
2019-01-25T12:31:26.025Z,0.24
2019-01-25T12:32:26.996Z,0.27
2019-01-25T12:33:27.731Z,0.23
2019-01-25T12:34:29.855Z,0.2
2019-01-25T12:35:29.427Z,0.15
2019-01-25T12:36:29.399Z,0.19
2019-01-25T12:37:29.835Z,0.29
2019-01-25T12:38:31.253Z,0.27
2019-01-25T12:39:34.358Z,0.23
2019-01-25T12:40:33.942Z,0.3
2019-01-25T12:41:34.639Z,0.26
2019-01-25T12:42:35.326Z,0.33
2019-01-25T12:43:36.470Z,0.51
2019-01-25T12:44:37.163Z,0.26
2019-01-25T12:45:38.189Z,0.36
2019-01-25T12:46:38.739Z,0.23
2019-01-25T12:47:39.173Z,0.27
2019-01-25T12:48:39.863Z,0.27
2019-01-25T12:49:40.804Z,0.33
2019-01-25T12:50:41.878Z,0.42
2019-01-25T12:51:42.382Z,0.51
2019-01-25T12:52:43.554Z,0.74
2019-01-25T12:53:44.691Z,0.76